sensor_id;sensor_type;location;lat;lon;timestamp;pressure;altitude;pressure_sealevel;temperature;humidity
45357;BME280;31092;51.924;21.448;2023-01-26T00:01:27;101148.56;;;-0.58;100.00
45357;BME280;31092;51.924;21.448;2023-01-26T00:03:56;101174.16;;;-0.40;100.00
45357;BME280;31092;51.924;21.448;2023-01-26T00:06:22;101192.31;;;-0.32;100.00
45357;BME280;31092;51.924;21.448;2023-01-26T00:08:50;101108.94;;;-0.79;100.00
45357;BME280;31092;51.924;21.448;2023-01-26T00:11:21;101127.75;;;-0.66;100.00
45357;BME280;31092;51.924;21.448;2023-01-26T00:13:51;101197.53;;;-0.31;100.00
45357;BME280;31092;51.924;21.448;2023-01-26T00:16:18;101105.44;;;-0.79;100.00
45357;BME280;31092;51.924;21.448;2023-01-26T00:18:44;101124.97;;;-0.63;100.00
45357;BME280;31092;51.924;21.448;2023-01-26T00:21:15;101189.16;;;-0.21;100.00
45357;BME280;31092;51.924;21.448;2023-01-26T00:23:41;101166.00;;;-0.35;100.00
45357;BME280;31092;51.924;21.448;2023-01-26T00:26:16;101109.66;;;-0.75;100.00
45357;BME280;31092;51.924;21.448;2023-01-26T00:28:42;101084.88;;;-0.91;100.00
45357;BME280;31092;51.924;21.448;2023-01-26T00:31:12;101150.91;;;-0.52;100.00
45357;BME280;31092;51.924;21.448;2023-01-26T00:33:38;101189.50;;;-0.29;100.00
45357;BME280;31092;51.924;21.448;2023-01-26T00:36:04;101138.91;;;-0.59;100.00
45357;BME280;31092;51.924;21.448;2023-01-26T00:38:29;101190.69;;;-0.35;100.00
45357;BME280;31092;51.924;21.448;2023-01-26T00:40:55;101088.81;;;-0.81;100.00
45357;BME280;31092;51.924;21.448;2023-01-26T00:43:20;101190.94;;;-0.22;100.00
45357;BME280;31092;51.924;21.448;2023-01-26T00:45:46;101196.75;;;-0.14;100.00
45357;BME280;31092;51.924;21.448;2023-01-26T00:48:11;101106.97;;;-0.74;100.00
45357;BME280;31092;51.924;21.448;2023-01-26T00:50:37;101188.94;;;-0.17;100.00
45357;BME280;31092;51.924;21.448;2023-01-26T00:53:02;101087.44;;;-0.71;100.00
45357;BME280;31092;51.924;21.448;2023-01-26T00:55:28;101168.13;;;-0.25;100.00
45357;BME280;31092;51.924;21.448;2023-01-26T00:58:03;101161.09;;;-0.26;100.00
45357;BME280;31092;51.924;21.448;2023-01-26T01:00:30;101086.97;;;-0.62;100.00
45357;BME280;31092;51.924;21.448;2023-01-26T01:02:57;101162.66;;;-0.21;100.00
45357;BME280;31092;51.924;21.448;2023-01-26T01:05:24;101177.41;;;-0.16;100.00
45357;BME280;31092;51.924;21.448;2023-01-26T01:07:50;101185.13;;;-0.11;100.00
45357;BME280;31092;51.924;21.448;2023-01-26T01:10:15;101085.91;;;-0.58;100.00
45357;BME280;31092;51.924;21.448;2023-01-26T01:12:41;101066.47;;;-0.76;100.00
45357;BME280;31092;51.924;21.448;2023-01-26T01:15:07;101062.03;;;-0.75;100.00
45357;BME280;31092;51.924;21.448;2023-01-26T01:17:33;101066.41;;;-0.74;100.00
45357;BME280;31092;51.924;21.448;2023-01-26T01:20:01;101134.06;;;-0.32;100.00
45357;BME280;31092;51.924;21.448;2023-01-26T01:22:26;101116.94;;;-0.42;100.00
45357;BME280;31092;51.924;21.448;2023-01-26T01:24:52;101055.91;;;-0.76;100.00
45357;BME280;31092;51.924;21.448;2023-01-26T01:27:17;101104.56;;;-0.42;100.00
45357;BME280;31092;51.924;21.448;2023-01-26T01:29:43;101017.75;;;-0.89;100.00
45357;BME280;31092;51.924;21.448;2023-01-26T01:32:08;101069.88;;;-0.55;100.00
45357;BME280;31092;51.924;21.448;2023-01-26T01:34:34;101077.75;;;-0.53;100.00
45357;BME280;31092;51.924;21.448;2023-01-26T01:36:59;101159.69;;;-0.14;100.00
45357;BME280;31092;51.924;21.448;2023-01-26T01:39:24;101052.25;;;-0.73;100.00
45357;BME280;31092;51.924;21.448;2023-01-26T01:41:50;101044.59;;;-0.79;100.00
45357;BME280;31092;51.924;21.448;2023-01-26T01:44:21;101136.13;;;-0.20;100.00
45357;BME280;31092;51.924;21.448;2023-01-26T01:47:02;101142.75;;;-0.11;100.00
45357;BME280;31092;51.924;21.448;2023-01-26T01:49:48;101112.75;;;-0.29;100.00
45357;BME280;31092;51.924;21.448;2023-01-26T01:52:17;101041.53;;;-0.70;100.00
45357;BME280;31092;51.924;21.448;2023-01-26T01:57:27;101021.50;;;-0.76;100.00
45357;BME280;31092;51.924;21.448;2023-01-26T02:00:04;101088.16;;;-0.31;100.00
45357;BME280;31092;51.924;21.448;2023-01-26T02:02:29;101083.78;;;-0.32;100.00
45357;BME280;31092;51.924;21.448;2023-01-26T02:04:57;101021.31;;;-0.71;100.00
45357;BME280;31092;51.924;21.448;2023-01-26T02:07:25;101100.16;;;-0.24;100.00
45357;BME280;31092;51.924;21.448;2023-01-26T02:09:52;101039.91;;;-0.55;100.00
45357;BME280;31092;51.924;21.448;2023-01-26T02:12:37;101049.13;;;-0.45;100.00
45357;BME280;31092;51.924;21.448;2023-01-26T02:15:03;101002.84;;;-0.73;100.00
45357;BME280;31092;51.924;21.448;2023-01-26T02:17:28;101053.41;;;-0.42;100.00
45357;BME280;31092;51.924;21.448;2023-01-26T02:22:44;101014.13;;;-0.69;100.00
45357;BME280;31092;51.924;21.448;2023-01-26T02:25:23;101082.47;;;-0.23;100.00
45357;BME280;31092;51.924;21.448;2023-01-26T02:27:54;101056.91;;;-0.42;100.00
45357;BME280;31092;51.924;21.448;2023-01-26T02:30:21;100993.97;;;-0.72;100.00
45357;BME280;31092;51.924;21.448;2023-01-26T02:32:47;101046.09;;;-0.37;100.00
45357;BME280;31092;51.924;21.448;2023-01-26T02:35:12;100952.41;;;-0.87;100.00
45357;BME280;31092;51.924;21.448;2023-01-26T02:37:38;100890.69;;;-1.22;100.00
45357;BME280;31092;51.924;21.448;2023-01-26T02:40:15;100941.97;;;-0.90;100.00
45357;BME280;31092;51.924;21.448;2023-01-26T02:42:45;100985.69;;;-0.64;100.00
45357;BME280;31092;51.924;21.448;2023-01-26T02:45:13;101028.56;;;-0.40;100.00
45357;BME280;31092;51.924;21.448;2023-01-26T02:47:39;101036.13;;;-0.32;100.00
45357;BME280;31092;51.924;21.448;2023-01-26T02:50:07;101060.06;;;-0.16;100.00
45357;BME280;31092;51.924;21.448;2023-01-26T02:52:33;101021.13;;;-0.32;100.00
45357;BME280;31092;51.924;21.448;2023-01-26T02:54:59;100952.53;;;-0.71;100.00
45357;BME280;31092;51.924;21.448;2023-01-26T02:57:44;101053.50;;;-0.09;100.00
45357;BME280;31092;51.924;21.448;2023-01-26T03:00:15;101032.88;;;-0.20;100.00
45357;BME280;31092;51.924;21.448;2023-01-26T03:02:41;101045.56;;;-0.09;100.00
45357;BME280;31092;51.924;21.448;2023-01-26T03:05:07;100941.84;;;-0.69;100.00
45357;BME280;31092;51.924;21.448;2023-01-26T03:07:33;101018.78;;;-0.20;100.00
45357;BME280;31092;51.924;21.448;2023-01-26T03:09:58;101036.81;;;-0.11;100.00
45357;BME280;31092;51.924;21.448;2023-01-26T03:12:24;100930.66;;;-0.75;100.00
45357;BME280;31092;51.924;21.448;2023-01-26T03:14:50;100921.13;;;-0.79;100.00
45357;BME280;31092;51.924;21.448;2023-01-26T03:17:35;101033.56;;;-0.16;100.00
45357;BME280;31092;51.924;21.448;2023-01-26T03:20:01;101022.34;;;-0.21;100.00
45357;BME280;31092;51.924;21.448;2023-01-26T03:22:45;100956.88;;;-0.53;100.00
45357;BME280;31092;51.924;21.448;2023-01-26T03:25:28;100879.84;;;-0.99;100.00
45357;BME280;31092;51.924;21.448;2023-01-26T03:28:12;100932.75;;;-0.64;100.00
45357;BME280;31092;51.924;21.448;2023-01-26T03:30:38;100921.47;;;-0.67;100.00
45357;BME280;31092;51.924;21.448;2023-01-26T03:33:04;100987.63;;;-0.33;100.00
45357;BME280;31092;51.924;21.448;2023-01-26T03:35:29;100923.63;;;-0.76;100.00
45357;BME280;31092;51.924;21.448;2023-01-26T03:37:56;100906.31;;;-0.81;100.00
45357;BME280;31092;51.924;21.448;2023-01-26T03:40:22;101017.00;;;-0.20;100.00
45357;BME280;31092;51.924;21.448;2023-01-26T03:43:10;100944.91;;;-0.60;100.00
45357;BME280;31092;51.924;21.448;2023-01-26T03:45:54;101015.28;;;-0.21;100.00
45357;BME280;31092;51.924;21.448;2023-01-26T03:48:37;100987.63;;;-0.33;100.00
45357;BME280;31092;51.924;21.448;2023-01-26T03:51:21;100897.66;;;-0.85;100.00
45357;BME280;31092;51.924;21.448;2023-01-26T03:54:05;100921.63;;;-0.70;100.00
45357;BME280;31092;51.924;21.448;2023-01-26T03:56:50;101003.28;;;-0.28;100.00
45357;BME280;31092;51.924;21.448;2023-01-26T03:59:15;101005.44;;;-0.19;100.00
45357;BME280;31092;51.924;21.448;2023-01-26T04:01:45;100924.44;;;-0.74;100.00
45357;BME280;31092;51.924;21.448;2023-01-26T04:04:29;100984.22;;;-0.35;100.00
45357;BME280;31092;51.924;21.448;2023-01-26T04:07:13;101002.09;;;-0.22;100.00
45357;BME280;31092;51.924;21.448;2023-01-26T04:09:58;100921.53;;;-0.69;100.00
45357;BME280;31092;51.924;21.448;2023-01-26T04:12:23;100892.22;;;-0.82;100.00
45357;BME280;31092;51.924;21.448;2023-01-26T04:14:49;100976.03;;;-0.30;100.00
45357;BME280;31092;51.924;21.448;2023-01-26T04:17:33;100988.72;;;-0.19;100.00
45357;BME280;31092;51.924;21.448;2023-01-26T04:20:17;100969.88;;;-0.31;100.00
45357;BME280;31092;51.924;21.448;2023-01-26T04:23:01;100978.22;;;-0.21;100.00
45357;BME280;31092;51.924;21.448;2023-01-26T04:25:27;100972.38;;;-0.28;100.00
45357;BME280;31092;51.924;21.448;2023-01-26T04:27:52;100971.44;;;-0.27;100.00
45357;BME280;31092;51.924;21.448;2023-01-26T04:30:18;100993.84;;;-0.16;100.00
45357;BME280;31092;51.924;21.448;2023-01-26T04:32:44;100988.63;;;-0.18;100.00
45357;BME280;31092;51.924;21.448;2023-01-26T04:35:10;100957.66;;;-0.33;100.00
45357;BME280;31092;51.924;21.448;2023-01-26T04:37:37;100903.66;;;-0.64;100.00
45357;BME280;31092;51.924;21.448;2023-01-26T04:40:03;100856.66;;;-0.93;100.00
45357;BME280;31092;51.924;21.448;2023-01-26T04:42:29;100877.25;;;-0.83;100.00
45357;BME280;31092;51.924;21.448;2023-01-26T04:44:54;100992.91;;;-0.15;100.00
45357;BME280;31092;51.924;21.448;2023-01-26T04:47:20;100909.97;;;-0.66;100.00
45357;BME280;31092;51.924;21.448;2023-01-26T04:49:46;100903.97;;;-0.70;100.00
45357;BME280;31092;51.924;21.448;2023-01-26T04:52:12;101003.50;;;-0.15;100.00
45357;BME280;31092;51.924;21.448;2023-01-26T04:54:38;100973.22;;;-0.27;100.00
45357;BME280;31092;51.924;21.448;2023-01-26T04:57:04;100971.72;;;-0.33;100.00
45357;BME280;31092;51.924;21.448;2023-01-26T04:59:29;100987.84;;;-0.20;100.00
45357;BME280;31092;51.924;21.448;2023-01-26T05:01:55;100983.25;;;-0.16;100.00
45357;BME280;31092;51.924;21.448;2023-01-26T05:04:20;100977.66;;;-0.28;100.00
45357;BME280;31092;51.924;21.448;2023-01-26T05:06:46;100947.56;;;-0.42;100.00
45357;BME280;31092;51.924;21.448;2023-01-26T05:09:11;100867.06;;;-0.90;100.00
45357;BME280;31092;51.924;21.448;2023-01-26T05:11:37;100949.94;;;-0.38;100.00
45357;BME280;31092;51.924;21.448;2023-01-26T05:14:03;100889.78;;;-0.86;100.00
45357;BME280;31092;51.924;21.448;2023-01-26T05:16:28;100945.22;;;-0.49;100.00
45357;BME280;31092;51.924;21.448;2023-01-26T05:18:53;100997.75;;;-0.23;100.00
45357;BME280;31092;51.924;21.448;2023-01-26T05:21:19;100882.19;;;-0.92;100.00
45357;BME280;31092;51.924;21.448;2023-01-26T05:23:49;100951.44;;;-0.50;100.00
45357;BME280;31092;51.924;21.448;2023-01-26T05:26:14;100972.69;;;-0.34;100.00
45357;BME280;31092;51.924;21.448;2023-01-26T05:28:40;100896.63;;;-0.82;100.00
45357;BME280;31092;51.924;21.448;2023-01-26T05:31:05;100905.06;;;-0.74;100.00
45357;BME280;31092;51.924;21.448;2023-01-26T05:33:30;100964.84;;;-0.35;100.00
45357;BME280;31092;51.924;21.448;2023-01-26T05:35:56;100975.41;;;-0.35;100.00
45357;BME280;31092;51.924;21.448;2023-01-26T05:38:23;100864.13;;;-1.02;100.00
45357;BME280;31092;51.924;21.448;2023-01-26T05:40:48;100863.19;;;-1.01;100.00
45357;BME280;31092;51.924;21.448;2023-01-26T05:43:13;100869.25;;;-0.99;100.00
45357;BME280;31092;51.924;21.448;2023-01-26T05:45:39;100949.00;;;-0.54;100.00
45357;BME280;31092;51.924;21.448;2023-01-26T05:48:05;100971.59;;;-0.47;100.00
45357;BME280;31092;51.924;21.448;2023-01-26T05:50:31;100884.03;;;-0.94;100.00
45357;BME280;31092;51.924;21.448;2023-01-26T05:52:56;100886.81;;;-0.98;100.00
45357;BME280;31092;51.924;21.448;2023-01-26T05:55:22;100965.44;;;-0.47;100.00
45357;BME280;31092;51.924;21.448;2023-01-26T05:57:47;100957.75;;;-0.52;100.00
45357;BME280;31092;51.924;21.448;2023-01-26T06:00:13;100976.66;;;-0.42;100.00
45357;BME280;31092;51.924;21.448;2023-01-26T06:02:39;100972.38;;;-0.45;100.00
45357;BME280;31092;51.924;21.448;2023-01-26T06:05:05;100954.28;;;-0.54;100.00
45357;BME280;31092;51.924;21.448;2023-01-26T06:07:31;100961.25;;;-0.52;100.00
45357;BME280;31092;51.924;21.448;2023-01-26T06:09:56;100951.03;;;-0.59;100.00
45357;BME280;31092;51.924;21.448;2023-01-26T06:12:22;100884.19;;;-0.98;100.00
45357;BME280;31092;51.924;21.448;2023-01-26T06:14:48;100862.63;;;-1.07;100.00
45357;BME280;31092;51.924;21.448;2023-01-26T06:17:15;100886.97;;;-1.01;100.00
45357;BME280;31092;51.924;21.448;2023-01-26T06:19:40;100954.53;;;-0.59;100.00
45357;BME280;31092;51.924;21.448;2023-01-26T06:22:07;100892.75;;;-0.92;100.00
45357;BME280;31092;51.924;21.448;2023-01-26T06:24:33;100879.19;;;-1.04;100.00
45357;BME280;31092;51.924;21.448;2023-01-26T06:26:59;100873.28;;;-1.09;100.00
45357;BME280;31092;51.924;21.448;2023-01-26T06:29:24;100977.13;;;-0.52;100.00
45357;BME280;31092;51.924;21.448;2023-01-26T06:31:49;100842.69;;;-1.32;100.00
45357;BME280;31092;51.924;21.448;2023-01-26T06:34:15;100966.13;;;-0.61;100.00
45357;BME280;31092;51.924;21.448;2023-01-26T06:36:40;100874.28;;;-1.11;100.00
45357;BME280;31092;51.924;21.448;2023-01-26T06:39:06;100904.41;;;-0.97;100.00
45357;BME280;31092;51.924;21.448;2023-01-26T06:41:33;100930.25;;;-0.84;100.00
45357;BME280;31092;51.924;21.448;2023-01-26T06:43:58;100909.16;;;-1.03;100.00
45357;BME280;31092;51.924;21.448;2023-01-26T06:46:24;100900.03;;;-0.98;100.00
45357;BME280;31092;51.924;21.448;2023-01-26T06:48:49;100992.06;;;-0.51;100.00
45357;BME280;31092;51.924;21.448;2023-01-26T06:53:42;100978.81;;;-0.51;100.00
45357;BME280;31092;51.924;21.448;2023-01-26T06:56:07;100932.25;;;-0.89;100.00
45357;BME280;31092;51.924;21.448;2023-01-26T06:58:33;100915.31;;;-0.85;100.00
45357;BME280;31092;51.924;21.448;2023-01-26T07:00:59;100875.78;;;-1.06;100.00
45357;BME280;31092;51.924;21.448;2023-01-26T07:03:24;100976.81;;;-0.45;100.00
45357;BME280;31092;51.924;21.448;2023-01-26T07:05:50;100875.50;;;-1.00;100.00
45357;BME280;31092;51.924;21.448;2023-01-26T07:08:15;100961.16;;;-0.50;100.00
45357;BME280;31092;51.924;21.448;2023-01-26T07:10:42;100975.72;;;-0.41;100.00
45357;BME280;31092;51.924;21.448;2023-01-26T07:13:08;100893.38;;;-0.87;100.00
45357;BME280;31092;51.924;21.448;2023-01-26T07:15:34;100984.34;;;-0.38;100.00
45357;BME280;31092;51.924;21.448;2023-01-26T07:17:59;100947.00;;;-0.49;100.00
45357;BME280;31092;51.924;21.448;2023-01-26T07:20:25;100964.84;;;-0.35;100.00
45357;BME280;31092;51.924;21.448;2023-01-26T07:22:51;100872.38;;;-0.90;100.00
45357;BME280;31092;51.924;21.448;2023-01-26T07:25:17;100878.22;;;-0.84;100.00
45357;BME280;31092;51.924;21.448;2023-01-26T07:27:43;100879.84;;;-0.81;100.00
45357;BME280;31092;51.924;21.448;2023-01-26T07:30:10;100948.16;;;-0.37;100.00
45357;BME280;31092;51.924;21.448;2023-01-26T07:32:36;100939.38;;;-0.38;100.00
45357;BME280;31092;51.924;21.448;2023-01-26T07:35:02;100867.03;;;-0.89;100.00
45357;BME280;31092;51.924;21.448;2023-01-26T07:37:29;100912.13;;;-0.57;100.00
45357;BME280;31092;51.924;21.448;2023-01-26T07:39:55;100968.69;;;-0.25;100.00
45357;BME280;31092;51.924;21.448;2023-01-26T07:42:21;100925.75;;;-0.47;100.00
45357;BME280;31092;51.924;21.448;2023-01-26T07:44:46;100812.53;;;-1.10;100.00
45357;BME280;31092;51.924;21.448;2023-01-26T07:47:11;100896.41;;;-0.60;100.00
45357;BME280;31092;51.924;21.448;2023-01-26T07:49:39;100850.34;;;-0.91;100.00
45357;BME280;31092;51.924;21.448;2023-01-26T07:52:05;100853.69;;;-0.87;100.00
45357;BME280;31092;51.924;21.448;2023-01-26T07:54:30;100878.44;;;-0.71;100.00
45357;BME280;31092;51.924;21.448;2023-01-26T07:56:56;100848.72;;;-0.76;100.00
45357;BME280;31092;51.924;21.448;2023-01-26T07:59:21;100864.13;;;-0.67;100.00
45357;BME280;31092;51.924;21.448;2023-01-26T08:01:50;100910.00;;;-0.33;100.00
45357;BME280;31092;51.924;21.448;2023-01-26T08:04:16;100915.13;;;-0.30;100.00
45357;BME280;31092;51.924;21.448;2023-01-26T08:06:41;100863.63;;;-0.58;100.00
45357;BME280;31092;51.924;21.448;2023-01-26T08:09:07;100933.34;;;-0.07;100.00
45357;BME280;31092;51.924;21.448;2023-01-26T08:11:33;100904.16;;;-0.22;100.00
45357;BME280;31092;51.924;21.448;2023-01-26T08:13:58;100915.44;;;-0.19;100.00
45357;BME280;31092;51.924;21.448;2023-01-26T08:16:24;100914.47;;;-0.18;100.00
45357;BME280;31092;51.924;21.448;2023-01-26T08:18:49;100866.41;;;-0.43;100.00
45357;BME280;31092;51.924;21.448;2023-01-26T08:21:16;100848.00;;;-0.45;100.00
45357;BME280;31092;51.924;21.448;2023-01-26T08:23:42;100942.09;;;0.11;100.00
45357;BME280;31092;51.924;21.448;2023-01-26T08:26:11;100902.31;;;-0.05;100.00
45357;BME280;31092;51.924;21.448;2023-01-26T08:28:36;100907.19;;;0.03;100.00
45357;BME280;31092;51.924;21.448;2023-01-26T08:31:06;100767.66;;;-0.77;100.00
45357;BME280;31092;51.924;21.448;2023-01-26T08:33:33;100938.72;;;0.25;100.00
45357;BME280;31092;51.924;21.448;2023-01-26T08:36:02;100842.13;;;-0.34;100.00
45357;BME280;31092;51.924;21.448;2023-01-26T08:38:29;100906.44;;;0.01;100.00
45357;BME280;31092;51.924;21.448;2023-01-26T08:40:56;100869.81;;;-0.24;100.00
45357;BME280;31092;51.924;21.448;2023-01-26T08:43:22;100849.09;;;-0.49;100.00
45357;BME280;31092;51.924;21.448;2023-01-26T08:45:47;100909.13;;;-0.16;100.00
45357;BME280;31092;51.924;21.448;2023-01-26T08:48:13;100915.88;;;-0.11;100.00
45357;BME280;31092;51.924;21.448;2023-01-26T08:50:38;100948.66;;;0.04;100.00
45357;BME280;31092;51.924;21.448;2023-01-26T08:53:04;100934.94;;;-0.04;100.00
45357;BME280;31092;51.924;21.448;2023-01-26T08:55:29;100930.69;;;-0.07;100.00
45357;BME280;31092;51.924;21.448;2023-01-26T08:57:56;100913.63;;;-0.18;100.00
45357;BME280;31092;51.924;21.448;2023-01-26T09:00:22;100945.31;;;0.01;100.00
45357;BME280;31092;51.924;21.448;2023-01-26T09:02:48;100926.47;;;-0.11;100.00
45357;BME280;31092;51.924;21.448;2023-01-26T09:05:13;100951.78;;;-0.05;100.00
45357;BME280;31092;51.924;21.448;2023-01-26T09:07:39;100840.91;;;-0.62;100.00
45357;BME280;31092;51.924;21.448;2023-01-26T09:10:05;100920.56;;;-0.16;100.00
45357;BME280;31092;51.924;21.448;2023-01-26T09:12:31;100841.47;;;-0.55;100.00
45357;BME280;31092;51.924;21.448;2023-01-26T09:14:56;100886.28;;;-0.35;100.00
45357;BME280;31092;51.924;21.448;2023-01-26T09:17:21;100922.06;;;-0.10;100.00
45357;BME280;31092;51.924;21.448;2023-01-26T09:19:47;100857.09;;;-0.51;100.00
45357;BME280;31092;51.924;21.448;2023-01-26T09:22:12;100789.38;;;-0.88;100.00
45357;BME280;31092;51.924;21.448;2023-01-26T09:24:38;100955.50;;;0.08;100.00
45357;BME280;31092;51.924;21.448;2023-01-26T09:27:03;100939.38;;;-0.05;100.00
45357;BME280;31092;51.924;21.448;2023-01-26T09:29:29;100934.41;;;-0.11;100.00
45357;BME280;31092;51.924;21.448;2023-01-26T09:31:54;100931.25;;;-0.17;100.00
45357;BME280;31092;51.924;21.448;2023-01-26T09:34:19;100961.97;;;0.03;100.00
45357;BME280;31092;51.924;21.448;2023-01-26T09:36:45;100946.94;;;0.03;100.00
45357;BME280;31092;51.924;21.448;2023-01-26T09:39:10;100939.16;;;0.00;100.00
45357;BME280;31092;51.924;21.448;2023-01-26T09:41:48;100934.94;;;-0.04;100.00
45357;BME280;31092;51.924;21.448;2023-01-26T09:44:23;100944.13;;;0.06;100.00
45357;BME280;31092;51.924;21.448;2023-01-26T09:50:12;100942.78;;;0.15;100.00
45357;BME280;31092;51.924;21.448;2023-01-26T09:55:24;100827.13;;;-0.51;100.00
45357;BME280;31092;51.924;21.448;2023-01-26T09:58:08;100858.69;;;-0.31;100.00
45357;BME280;31092;51.924;21.448;2023-01-26T10:00:46;100850.38;;;-0.40;100.00
45357;BME280;31092;51.924;21.448;2023-01-26T10:06:32;100929.72;;;0.12;100.00
45357;BME280;31092;51.924;21.448;2023-01-26T10:09:05;100899.66;;;-0.05;100.00
45357;BME280;31092;51.924;21.448;2023-01-26T10:11:43;100813.16;;;-0.53;100.00
45357;BME280;31092;51.924;21.448;2023-01-26T10:14:14;100908.09;;;0.04;100.00
45357;BME280;31092;51.924;21.448;2023-01-26T10:16:46;100846.47;;;-0.33;100.00
45357;BME280;31092;51.924;21.448;2023-01-26T10:19:23;100831.69;;;-0.37;100.00
45357;BME280;31092;51.924;21.448;2023-01-26T10:21:54;100908.50;;;0.12;100.00
45357;BME280;31092;51.924;21.448;2023-01-26T10:24:22;100807.28;;;-0.42;100.00
45357;BME280;31092;51.924;21.448;2023-01-26T10:26:52;100821.47;;;-0.28;100.00
45357;BME280;31092;51.924;21.448;2023-01-26T10:29:21;100900.56;;;0.28;100.00
45357;BME280;31092;51.924;21.448;2023-01-26T10:31:46;100801.91;;;-0.25;100.00
45357;BME280;31092;51.924;21.448;2023-01-26T10:34:15;100894.44;;;0.27;100.00
45357;BME280;31092;51.924;21.448;2023-01-26T10:36:57;100904.53;;;0.36;100.00
45357;BME280;31092;51.924;21.448;2023-01-26T10:39:26;100594.41;;;-1.51;100.00
45357;BME280;31092;51.924;21.448;2023-01-26T10:41:59;100893.41;;;0.30;100.00
45357;BME280;31092;51.924;21.448;2023-01-26T10:44:30;100899.31;;;0.35;100.00
45357;BME280;31092;51.924;21.448;2023-01-26T10:47:16;100844.00;;;0.13;100.00
45357;BME280;31092;51.924;21.448;2023-01-26T10:49:42;100779.72;;;-0.22;100.00
45357;BME280;31092;51.924;21.448;2023-01-26T10:54:40;100791.34;;;-0.09;100.00
45357;BME280;31092;51.924;21.448;2023-01-26T10:57:27;100844.88;;;0.29;100.00
45357;BME280;31092;51.924;21.448;2023-01-26T10:59:57;100880.78;;;0.51;100.00
45357;BME280;31092;51.924;21.448;2023-01-26T11:02:27;100841.84;;;0.35;100.00
45357;BME280;31092;51.924;21.448;2023-01-26T11:07:37;100773.19;;;0.01;100.00
45357;BME280;31092;51.924;21.448;2023-01-26T11:10:35;100854.84;;;0.56;100.00
45357;BME280;31092;51.924;21.448;2023-01-26T11:13:18;100837.00;;;0.43;100.00
45357;BME280;31092;51.924;21.448;2023-01-26T11:16:35;100738.06;;;-0.03;100.00
45357;BME280;31092;51.924;21.448;2023-01-26T11:24:07;100836.97;;;0.59;100.00
45357;BME280;31092;51.924;21.448;2023-01-26T11:40:18;100780.22;;;0.47;100.00
45357;BME280;31092;51.924;21.448;2023-01-26T11:43:21;100722.75;;;0.18;100.00
45357;BME280;31092;51.924;21.448;2023-01-26T11:54:38;100788.75;;;0.53;100.00
45357;BME280;31092;51.924;21.448;2023-01-26T11:57:14;100780.22;;;0.47;100.00
45357;BME280;31092;51.924;21.448;2023-01-26T11:59:49;100778.88;;;0.40;100.00
45357;BME280;31092;51.924;21.448;2023-01-26T12:04:53;100777.22;;;0.38;100.00
45357;BME280;31092;51.924;21.448;2023-01-26T12:07:34;100676.13;;;-0.16;100.00
45357;BME280;31092;51.924;21.448;2023-01-26T12:10:16;100747.69;;;0.30;100.00
45357;BME280;31092;51.924;21.448;2023-01-26T12:12:48;100775.88;;;0.46;100.00
45357;BME280;31092;51.924;21.448;2023-01-26T12:15:28;100705.56;;;0.09;100.00
45357;BME280;31092;51.924;21.448;2023-01-26T12:18:14;100773.91;;;0.50;100.00
45357;BME280;31092;51.924;21.448;2023-01-26T12:24:04;100767.53;;;0.53;100.00
45357;BME280;31092;51.924;21.448;2023-01-26T12:26:34;100754.16;;;0.40;100.00
45357;BME280;31092;51.924;21.448;2023-01-26T12:29:05;100768.84;;;0.45;100.00
45357;BME280;31092;51.924;21.448;2023-01-26T12:32:00;100761.06;;;0.42;100.00
45357;BME280;31092;51.924;21.448;2023-01-26T12:34:31;100756.03;;;0.38;100.00
45357;BME280;31092;51.924;21.448;2023-01-26T12:42:43;100700.63;;;0.03;100.00
45357;BME280;31092;51.924;21.448;2023-01-26T12:45:32;100729.06;;;0.15;100.00
45357;BME280;31092;51.924;21.448;2023-01-26T12:48:24;100774.31;;;0.42;100.00
45357;BME280;31092;51.924;21.448;2023-01-26T12:51:02;100646.78;;;-0.28;100.00
45357;BME280;31092;51.924;21.448;2023-01-26T12:53:35;100736.97;;;0.31;100.00
45357;BME280;31092;51.924;21.448;2023-01-26T12:56:14;100776.72;;;0.47;100.00
45357;BME280;31092;51.924;21.448;2023-01-26T12:58:47;100681.34;;;0.01;100.00
45357;BME280;31092;51.924;21.448;2023-01-26T13:01:19;100650.84;;;-0.22;100.00
45357;BME280;31092;51.924;21.448;2023-01-26T13:03:57;100762.97;;;0.40;100.00
45357;BME280;31092;51.924;21.448;2023-01-26T13:06:27;100728.06;;;0.18;100.00
45357;BME280;31092;51.924;21.448;2023-01-26T13:11:57;100763.41;;;0.33;100.00
45357;BME280;31092;51.924;21.448;2023-01-26T13:27:39;100650.63;;;-0.49;100.00
45357;BME280;31092;51.924;21.448;2023-01-26T13:32:50;100771.72;;;0.11;100.00
45357;BME280;31092;51.924;21.448;2023-01-26T13:35:18;100735.16;;;0.02;100.00
45357;BME280;31092;51.924;21.448;2023-01-26T13:38:15;100657.50;;;-0.46;100.00
45357;BME280;31092;51.924;21.448;2023-01-26T13:40:49;100696.69;;;-0.21;100.00
45357;BME280;31092;51.924;21.448;2023-01-26T13:43:28;100748.56;;;-0.02;100.00
45357;BME280;31092;51.924;21.448;2023-01-26T13:46:06;100757.19;;;0.02;100.00
45357;BME280;31092;51.924;21.448;2023-01-26T13:48:48;100765.22;;;0.01;100.00
45357;BME280;31092;51.924;21.448;2023-01-26T13:56:21;100716.00;;;-0.19;100.00
45357;BME280;31092;51.924;21.448;2023-01-26T13:58:47;100642.34;;;-0.59;100.00
45357;BME280;31092;51.924;21.448;2023-01-26T14:01:14;100640.63;;;-0.60;100.00
45357;BME280;31092;51.924;21.448;2023-01-26T14:03:41;100642.75;;;-0.66;100.00
45357;BME280;31092;51.924;21.448;2023-01-26T14:06:13;100727.38;;;-0.17;100.00
45357;BME280;31092;51.924;21.448;2023-01-26T14:08:44;100636.63;;;-0.67;100.00
45357;BME280;31092;51.924;21.448;2023-01-26T14:11:20;100640.97;;;-0.66;100.00